Time;durP1;ratioP1;P1;durP2;ratioP2;P2;SDS_P1;SDS_P2;PMS_P1;PMS_P2;Temp;Humidity;BMP_temperature;BMP_pressure;BME280_temperature;BME280_humidity;BME280_pressure;Samples;Min_cycle;Max_cycle;Signal;HPM_P1;HPM_P2
2023/07/03 00:01:18;;;;;;;38.13;16.97;;;;;;;;;;6197492;28;20038;-60
2023/07/03 00:04:27;;;;;;;34.33;16.35;;;;;;;;;;6215943;28;20530;-60
2023/07/03 00:07:27;;;;;;;37.65;15.82;;;;;;;;;;6224112;28;20042;-60
2023/07/03 00:10:29;;;;;;;26.97;14.33;;;;;;;;;;6222807;28;20080;-60
2023/07/03 00:13:29;;;;;;;28.70;13.90;;;;;;;;;;6219895;28;20308;-59
2023/07/03 00:16:30;;;;;;;30.83;12.80;;;;;;;;;;6232982;28;20058;-59
2023/07/03 00:19:31;;;;;;;29.00;14.00;;;;;;;;;;6220237;28;20124;-59
2023/07/03 00:22:31;;;;;;;27.10;13.47;;;;;;;;;;6212743;28;20045;-60
2023/07/03 00:25:32;;;;;;;28.13;14.20;;;;;;;;;;6221378;28;20045;-59
2023/07/03 00:28:33;;;;;;;29.47;14.17;;;;;;;;;;6218087;28;20049;-60
2023/07/03 00:31:33;;;;;;;27.77;13.47;;;;;;;;;;6217722;28;20049;-60
2023/07/03 00:34:34;;;;;;;30.50;14.33;;;;;;;;;;6219873;28;20066;-60
2023/07/03 00:37:35;;;;;;;28.57;13.77;;;;;;;;;;6214115;28;20115;-59
2023/07/03 00:40:35;;;;;;;23.90;11.98;;;;;;;;;;6216145;28;20046;-59
2023/07/03 00:43:41;;;;;;;24.50;12.60;;;;;;;;;;6216384;28;20046;-60
2023/07/03 00:46:43;;;;;;;33.35;14.88;;;;;;;;;;6209354;28;20058;-60
2023/07/03 00:49:44;;;;;;;26.40;12.68;;;;;;;;;;6206643;28;20045;-59
2023/07/03 00:52:48;;;;;;;22.27;11.50;;;;;;;;;;6214640;28;20037;-61
2023/07/03 00:55:49;;;;;;;24.80;12.43;;;;;;;;;;6214494;28;20042;-59
2023/07/03 00:58:50;;;;;;;24.03;11.83;;;;;;;;;;6203427;28;20386;-60
2023/07/03 01:02:16;;;;;;;21.90;12.00;;;;;;;;;;6214709;28;20067;-59
2023/07/03 01:05:27;;;;;;;28.02;12.57;;;;;;;;;;6210593;28;20824;-60
2023/07/03 01:08:27;;;;;;;24.45;12.43;;;;;;;;;;6216690;28;20049;-59
2023/07/03 01:11:29;;;;;;;25.80;12.63;;;;;;;;;;6211958;28;20054;-59
2023/07/03 01:14:30;;;;;;;19.15;11.77;;;;;;;;;;6210787;28;20104;-59
2023/07/03 01:17:32;;;;;;;23.88;12.40;;;;;;;;;;6214086;28;20074;-60
2023/07/03 01:20:44;;;;;;;22.48;12.38;;;;;;;;;;6213738;28;20469;-59
2023/07/03 01:23:53;;;;;;;27.75;13.18;;;;;;;;;;6212702;28;20476;-60
2023/07/03 01:26:53;;;;;;;23.75;11.45;;;;;;;;;;6211818;28;20050;-60
2023/07/03 01:29:56;;;;;;;20.17;12.00;;;;;;;;;;6211302;28;20042;-60
2023/07/03 01:32:59;;;;;;;28.35;12.27;;;;;;;;;;6214086;28;20042;-60
2023/07/03 01:36:01;;;;;;;25.73;12.20;;;;;;;;;;6215095;28;20585;-59
2023/07/03 01:39:03;;;;;;;24.08;12.27;;;;;;;;;;6215536;28;20049;-59
2023/07/03 01:42:04;;;;;;;21.45;12.07;;;;;;;;;;6213978;28;20068;-60
2023/07/03 01:45:05;;;;;;;26.80;12.82;;;;;;;;;;6212048;28;20468;-60
2023/07/03 01:48:07;;;;;;;25.83;12.77;;;;;;;;;;6210321;28;20058;-60
2023/07/03 01:51:14;;;;;;;24.30;12.73;;;;;;;;;;6210102;28;20745;-59
2023/07/03 01:54:26;;;;;;;22.38;12.57;;;;;;;;;;6212715;28;20272;-59
2023/07/03 01:57:38;;;;;;;27.73;13.68;;;;;;;;;;6210510;28;20109;-59
2023/07/03 02:00:52;;;;;;;28.27;12.68;;;;;;;;;;6212093;28;20045;-59
2023/07/03 02:03:58;;;;;;;23.08;12.27;;;;;;;;;;6213003;28;20456;-59
2023/07/03 02:07:01;;;;;;;23.80;12.43;;;;;;;;;;6212652;28;20046;-60
2023/07/03 02:10:03;;;;;;;27.98;12.77;;;;;;;;;;6210364;28;20044;-59
2023/07/03 02:13:03;;;;;;;22.17;12.75;;;;;;;;;;6212468;28;20045;-59
2023/07/03 02:16:04;;;;;;;23.30;13.10;;;;;;;;;;6210275;28;20054;-59
2023/07/03 02:19:05;;;;;;;24.43;13.83;;;;;;;;;;6210431;28;20116;-60
2023/07/03 02:22:06;;;;;;;30.43;13.93;;;;;;;;;;6211697;28;20046;-59
2023/07/03 02:25:07;;;;;;;;;;;;;;;;;;6211682;28;20048;-60
2023/07/03 02:28:08;;;;;;;23.60;12.55;;;;;;;;;;6209025;28;20376;-59
2023/07/03 02:31:09;;;;;;;26.83;13.73;;;;;;;;;;6211088;28;20121;-60
2023/07/03 02:34:09;;;;;;;25.63;14.20;;;;;;;;;;6212049;28;20478;-59
2023/07/03 02:37:11;;;;;;;29.03;13.40;;;;;;;;;;6211396;28;20057;-60
2023/07/03 02:40:13;;;;;;;;;;;;;;;;;;6208779;28;20378;-60
2023/07/03 02:43:14;;;;;;;27.52;14.13;;;;;;;;;;6211499;28;19960;-60
2023/07/03 02:46:14;;;;;;;27.52;13.70;;;;;;;;;;6212538;28;20278;-60
2023/07/03 02:49:15;;;;;;;26.55;14.02;;;;;;;;;;6209994;28;20037;-60
2023/07/03 02:52:15;;;;;;;26.50;14.50;;;;;;;;;;6209843;28;20105;-60
2023/07/03 02:55:16;;;;;;;25.17;15.02;;;;;;;;;;6210875;28;20062;-59
2023/07/03 02:58:17;;;;;;;26.33;14.35;;;;;;;;;;6208914;28;20053;-62
2023/07/03 03:01:18;;;;;;;33.00;16.65;;;;;;;;;;6208492;28;20060;-59
2023/07/03 03:04:19;;;;;;;31.50;16.00;;;;;;;;;;6208833;28;20045;-60
2023/07/03 03:07:19;;;;;;;26.08;14.93;;;;;;;;;;6208769;28;20057;-59
2023/07/03 03:10:20;;;;;;;25.88;15.05;;;;;;;;;;6207032;28;20611;-60
2023/07/03 03:13:21;;;;;;;36.50;17.08;;;;;;;;;;6214626;28;20050;-60
2023/07/03 03:16:23;;;;;;;28.27;15.15;;;;;;;;;;6210988;28;20405;-59
2023/07/03 03:19:23;;;;;;;30.67;15.25;;;;;;;;;;6208886;28;20042;-60
2023/07/03 03:22:24;;;;;;;26.60;13.97;;;;;;;;;;6208755;28;20038;-60
2023/07/03 03:25:25;;;;;;;25.75;14.68;;;;;;;;;;6209741;28;20131;-60
2023/07/03 03:28:25;;;;;;;29.47;15.00;;;;;;;;;;6208597;28;20068;-60
2023/07/03 03:31:26;;;;;;;29.57;14.13;;;;;;;;;;6211351;28;20042;-60
2023/07/03 03:34:27;;;;;;;32.40;15.65;;;;;;;;;;6213724;28;20072;-60
2023/07/03 03:37:28;;;;;;;27.33;13.77;;;;;;;;;;6208341;28;20062;-60
2023/07/03 03:40:28;;;;;;;29.60;15.02;;;;;;;;;;6215475;28;20046;-60
2023/07/03 03:43:29;;;;;;;27.30;13.77;;;;;;;;;;6217005;28;20117;-60
2023/07/03 03:46:29;;;;;;;30.52;14.77;;;;;;;;;;6215529;28;20401;-60
2023/07/03 03:49:31;;;;;;;34.17;17.73;;;;;;;;;;6211509;28;20192;-59
2023/07/03 03:52:31;;;;;;;36.50;17.15;;;;;;;;;;6214521;28;20030;-59
2023/07/03 03:55:32;;;;;;;34.35;17.40;;;;;;;;;;6214964;28;20454;-60
2023/07/03 03:58:32;;;;;;;36.90;17.40;;;;;;;;;;6213035;28;20042;-60
2023/07/03 04:01:34;;;;;;;31.20;15.67;;;;;;;;;;6213379;28;20455;-59
2023/07/03 04:04:34;;;;;;;28.15;16.20;;;;;;;;;;6214144;28;20104;-60
2023/07/03 04:07:35;;;;;;;35.60;16.60;;;;;;;;;;6213198;28;20595;-60
2023/07/03 04:10:36;;;;;;;35.93;17.00;;;;;;;;;;6213165;28;20481;-60
2023/07/03 04:13:36;;;;;;;35.53;17.97;;;;;;;;;;6213974;28;20124;-61
2023/07/03 04:16:37;;;;;;;38.37;18.67;;;;;;;;;;6215785;28;20533;-59
2023/07/03 04:19:38;;;;;;;38.57;20.33;;;;;;;;;;6213035;28;20120;-60
2023/07/03 04:22:42;;;;;;;35.37;18.90;;;;;;;;;;6214301;28;20042;-60
2023/07/03 04:25:43;;;;;;;40.00;19.23;;;;;;;;;;6214213;28;20628;-59
2023/07/03 04:28:43;;;;;;;34.60;17.93;;;;;;;;;;6214356;28;20049;-60
2023/07/03 04:31:44;;;;;;;36.27;19.30;;;;;;;;;;6219938;28;20416;-59
2023/07/03 04:34:44;;;;;;;40.47;18.60;;;;;;;;;;6215834;28;20049;-60
2023/07/03 04:37:45;;;;;;;33.63;17.67;;;;;;;;;;6213576;28;20688;-60
2023/07/03 04:40:46;;;;;;;34.90;17.80;;;;;;;;;;6212454;28;20058;-60
2023/07/03 04:43:48;;;;;;;35.40;18.25;;;;;;;;;;6211839;28;20074;-59
2023/07/03 04:46:48;;;;;;;36.40;18.40;;;;;;;;;;6211166;28;20049;-63
2023/07/03 04:49:49;;;;;;;38.83;17.77;;;;;;;;;;6211286;28;20622;-60
2023/07/03 04:52:50;;;;;;;34.63;18.27;;;;;;;;;;6219628;28;20050;-60
2023/07/03 04:55:51;;;;;;;34.78;17.17;;;;;;;;;;6214002;28;20054;-60
2023/07/03 04:58:51;;;;;;;36.40;17.30;;;;;;;;;;6202494;28;20092;-59
2023/07/03 05:01:52;;;;;;;36.50;17.00;;;;;;;;;;6213268;28;20046;-60
2023/07/03 05:04:53;;;;;;;30.80;16.20;;;;;;;;;;6213962;28;20057;-59
2023/07/03 05:07:54;;;;;;;34.67;16.92;;;;;;;;;;6212550;28;20049;-60
2023/07/03 05:10:55;;;;;;;32.30;15.93;;;;;;;;;;6212615;28;20451;-59
2023/07/03 05:13:56;;;;;;;28.57;15.83;;;;;;;;;;6217704;28;20548;-62
2023/07/03 05:16:56;;;;;;;27.67;15.27;;;;;;;;;;6215413;28;20084;-60
2023/07/03 05:19:57;;;;;;;24.47;14.37;;;;;;;;;;6212760;28;20081;-60
2023/07/03 05:22:58;;;;;;;28.80;15.17;;;;;;;;;;6215585;28;20042;-63
2023/07/03 05:25:58;;;;;;;31.30;14.83;;;;;;;;;;6214726;28;20054;-62
2023/07/03 05:28:59;;;;;;;25.77;13.27;;;;;;;;;;6213265;28;20046;-61
2023/07/03 05:32:01;;;;;;;26.30;14.53;;;;;;;;;;6215875;28;20165;-60
2023/07/03 05:35:04;;;;;;;27.75;14.70;;;;;;;;;;6216091;28;20052;-62
2023/07/03 05:38:04;;;;;;;25.17;13.48;;;;;;;;;;6216856;28;20129;-63
2023/07/03 05:41:05;;;;;;;23.53;12.87;;;;;;;;;;6216607;28;20053;-61
2023/07/03 05:44:05;;;;;;;25.00;13.80;;;;;;;;;;6212920;28;20061;-62
2023/07/03 05:47:06;;;;;;;26.73;13.67;;;;;;;;;;6210749;28;20053;-62
2023/07/03 05:50:07;;;;;;;25.20;13.37;;;;;;;;;;6209664;28;20053;-62
2023/07/03 05:53:09;;;;;;;22.57;12.50;;;;;;;;;;6211973;28;20042;-62
2023/07/03 05:56:09;;;;;;;23.73;12.68;;;;;;;;;;6212080;28;20291;-62
2023/07/03 05:59:10;;;;;;;25.47;12.73;;;;;;;;;;6212984;28;20508;-64
2023/07/03 06:02:13;;;;;;;26.43;12.97;;;;;;;;;;6216169;28;20077;-64
2023/07/03 06:05:15;;;;;;;24.70;12.27;;;;;;;;;;6218497;28;20437;-61
2023/07/03 06:08:16;;;;;;;22.83;12.88;;;;;;;;;;6218110;28;20501;-62
2023/07/03 06:11:16;;;;;;;21.63;11.40;;;;;;;;;;6205193;28;20053;-62
2023/07/03 06:14:18;;;;;;;25.97;12.30;;;;;;;;;;6218883;28;20408;-62
2023/07/03 06:17:19;;;;;;;;;;;;;;;;;;6219003;28;20045;-64
2023/07/03 06:20:19;;;;;;;20.17;10.90;;;;;;;;;;6216571;28;19932;-61
2023/07/03 06:23:20;;;;;;;19.00;10.67;;;;;;;;;;6218513;28;20120;-62
2023/07/03 06:26:20;;;;;;;17.80;10.00;;;;;;;;;;6218266;28;20074;-65
2023/07/03 06:29:21;;;;;;;21.03;9.97;;;;;;;;;;6215328;28;20120;-64
2023/07/03 06:32:22;;;;;;;14.77;9.00;;;;;;;;;;6219010;28;20068;-63
2023/07/03 06:35:22;;;;;;;19.63;10.77;;;;;;;;;;6217824;28;20061;-65
2023/07/03 06:38:23;;;;;;;17.40;9.70;;;;;;;;;;6217761;28;20076;-64
2023/07/03 06:41:27;;;;;;;15.57;9.17;;;;;;;;;;6215134;28;20112;-61
2023/07/03 06:44:27;;;;;;;15.55;9.10;;;;;;;;;;6205350;28;20060;-64
2023/07/03 06:47:28;;;;;;;16.20;8.83;;;;;;;;;;6216324;28;20046;-67
2023/07/03 06:50:29;;;;;;;17.63;9.33;;;;;;;;;;6215925;28;20048;-63
2023/07/03 06:53:29;;;;;;;17.03;8.93;;;;;;;;;;6209279;28;20091;-64
2023/07/03 06:56:30;;;;;;;17.17;8.73;;;;;;;;;;6217288;28;20056;-63
2023/07/03 06:59:30;;;;;;;22.07;9.20;;;;;;;;;;6215659;28;20505;-63
2023/07/03 07:02:31;;;;;;;17.63;8.73;;;;;;;;;;6218385;28;20049;-63
2023/07/03 07:05:33;;;;;;;;;;;;;;;;;;6216694;28;20070;-63
2023/07/03 07:08:34;;;;;;;14.40;7.97;;;;;;;;;;6216880;28;19925;-64
2023/07/03 07:11:35;;;;;;;14.10;8.33;;;;;;;;;;6216654;28;20515;-64
2023/07/03 07:14:36;;;;;;;16.02;7.95;;;;;;;;;;6217061;28;20144;-61
2023/07/03 07:17:37;;;;;;;17.60;8.63;;;;;;;;;;6218102;28;20037;-64
2023/07/03 07:20:39;;;;;;;14.70;7.57;;;;;;;;;;6215918;28;20127;-66
2023/07/03 07:23:39;;;;;;;;;;;;;;;;;;6218165;28;20037;-60
2023/07/03 07:26:40;;;;;;;16.38;8.45;;;;;;;;;;6217279;28;19963;-60
2023/07/03 07:29:40;;;;;;;17.67;8.10;;;;;;;;;;6215542;28;20034;-61
2023/07/03 07:32:41;;;;;;;18.30;8.40;;;;;;;;;;6217345;28;20053;-65
2023/07/03 07:35:43;;;;;;;15.77;8.00;;;;;;;;;;6216294;28;20073;-64
2023/07/03 07:38:44;;;;;;;20.33;8.52;;;;;;;;;;6216258;28;20064;-65
2023/07/03 07:41:45;;;;;;;21.00;8.90;;;;;;;;;;6216767;28;20057;-65
2023/07/03 07:44:49;;;;;;;22.98;9.45;;;;;;;;;;6216976;28;20060;-65
2023/07/03 07:47:49;;;;;;;21.25;8.95;;;;;;;;;;6217101;28;20104;-59
2023/07/03 07:50:50;;;;;;;20.73;10.37;;;;;;;;;;6215586;28;20084;-61
2023/07/03 07:53:52;;;;;;;22.40;9.60;;;;;;;;;;6218018;28;20473;-64
2023/07/03 07:56:52;;;;;;;22.90;9.82;;;;;;;;;;6216286;28;20041;-64
2023/07/03 07:59:53;;;;;;;27.63;10.03;;;;;;;;;;6212726;28;20058;-60
2023/07/03 08:02:54;;;;;;;25.37;10.37;;;;;;;;;;6214567;28;20125;-59
2023/07/03 08:05:59;;;;;;;26.67;11.50;;;;;;;;;;6192246;28;20476;-58
2023/07/03 08:09:00;;;;;;;27.52;11.18;;;;;;;;;;6196151;28;20133;-59
2023/07/03 08:12:04;;;;;;;30.20;11.23;;;;;;;;;;6190483;28;20531;-59
2023/07/03 08:15:05;;;;;;;31.17;12.52;;;;;;;;;;6195237;28;20050;-60
2023/07/03 08:18:06;;;;;;;34.42;12.55;;;;;;;;;;6199236;28;20046;-60
2023/07/03 08:21:07;;;;;;;37.57;12.67;;;;;;;;;;6195270;28;20710;-60
2023/07/03 08:24:07;;;;;;;34.17;12.10;;;;;;;;;;6197139;28;20038;-64
2023/07/03 08:27:08;;;;;;;36.83;14.20;;;;;;;;;;6196166;28;20140;-64
2023/07/03 08:30:09;;;;;;;38.40;13.17;;;;;;;;;;6196533;28;20046;-63
2023/07/03 08:33:12;;;;;;;34.78;14.18;;;;;;;;;;6199805;28;20485;-64
2023/07/03 08:36:12;;;;;;;38.65;14.40;;;;;;;;;;6197934;28;20135;-60
2023/07/03 08:39:13;;;;;;;39.77;14.57;;;;;;;;;;6191992;28;20046;-60
2023/07/03 08:42:23;;;;;;;42.23;15.03;;;;;;;;;;6191562;28;20050;-60
2023/07/03 08:45:43;;;;;;;45.10;15.23;;;;;;;;;;6196340;28;20053;-59
2023/07/03 08:48:45;;;;;;;41.35;15.45;;;;;;;;;;6194879;28;20050;-59
2023/07/03 08:51:46;;;;;;;40.78;14.60;;;;;;;;;;6192245;28;20141;-59
2023/07/03 08:54:49;;;;;;;41.42;14.50;;;;;;;;;;6194131;28;20195;-60
2023/07/03 08:57:49;;;;;;;45.08;14.90;;;;;;;;;;6193376;28;20052;-59
2023/07/03 09:01:11;;;;;;;46.10;15.37;;;;;;;;;;6190171;28;20054;-60
2023/07/03 09:04:47;;;;;;;44.38;15.32;;;;;;;;;;6188672;28;20493;-60
2023/07/03 09:07:53;;;;;;;37.88;13.88;;;;;;;;;;6192353;28;20849;-61
2023/07/03 09:10:55;;;;;;;42.85;14.57;;;;;;;;;;6198443;28;20050;-60
2023/07/03 09:13:58;;;;;;;44.97;15.20;;;;;;;;;;6193023;28;20054;-60
2023/07/03 09:17:00;;;;;;;35.97;13.73;;;;;;;;;;6193521;28;20050;-60
2023/07/03 09:20:04;;;;;;;42.97;14.73;;;;;;;;;;6194593;28;20049;-60
2023/07/03 09:23:21;;;;;;;44.63;14.63;;;;;;;;;;6191122;28;20050;-59
2023/07/03 09:26:46;;;;;;;42.75;15.05;;;;;;;;;;6193017;28;20133;-60
2023/07/03 09:29:48;;;;;;;44.25;15.80;;;;;;;;;;6193624;28;20049;-60
2023/07/03 09:32:49;;;;;;;42.70;15.68;;;;;;;;;;6191192;28;20580;-60
2023/07/03 09:35:50;;;;;;;51.60;15.68;;;;;;;;;;6189462;28;20141;-60
2023/07/03 09:38:51;;;;;;;43.93;15.60;;;;;;;;;;6193167;28;20515;-60
2023/07/03 09:41:53;;;;;;;42.67;16.55;;;;;;;;;;6192161;28;20823;-61
2023/07/03 09:44:53;;;;;;;46.63;16.15;;;;;;;;;;6186639;28;20050;-58
2023/07/03 09:47:57;;;;;;;60.93;15.93;;;;;;;;;;6188848;28;20061;-59
2023/07/03 09:50:57;;;;;;;50.47;15.65;;;;;;;;;;6193258;28;20054;-60
2023/07/03 09:54:06;;;;;;;46.45;15.98;;;;;;;;;;6188426;28;20052;-60
2023/07/03 09:57:18;;;;;;;47.85;16.20;;;;;;;;;;6192007;28;20228;-60
2023/07/03 10:00:22;;;;;;;49.38;16.85;;;;;;;;;;6189515;28;20105;-61
2023/07/03 10:03:23;;;;;;;48.75;17.80;;;;;;;;;;6194053;28;20050;-60
2023/07/03 10:06:23;;;;;;;46.67;16.80;;;;;;;;;;6193634;28;20516;-60
2023/07/03 10:09:30;;;;;;;48.23;16.30;;;;;;;;;;6193492;28;20054;-60
2023/07/03 10:12:38;;;;;;;54.20;17.70;;;;;;;;;;6191864;28;20516;-60
2023/07/03 10:15:41;;;;;;;48.53;16.50;;;;;;;;;;6189715;28;20128;-60
2023/07/03 10:18:48;;;;;;;47.67;16.25;;;;;;;;;;6194652;28;20081;-60
2023/07/03 10:21:51;;;;;;;46.45;15.82;;;;;;;;;;6190881;28;20050;-59
2023/07/03 10:24:55;;;;;;;44.58;15.52;;;;;;;;;;6190782;28;20556;-59
2023/07/03 10:27:58;;;;;;;50.13;16.00;;;;;;;;;;6193243;28;20057;-60
2023/07/03 10:31:05;;;;;;;46.95;16.70;;;;;;;;;;6189273;28;20048;-60
2023/07/03 10:34:13;;;;;;;42.45;15.30;;;;;;;;;;6190122;28;20053;-60
2023/07/03 10:37:17;;;;;;;47.80;16.13;;;;;;;;;;6191978;28;20561;-59
2023/07/03 10:40:27;;;;;;;46.72;15.60;;;;;;;;;;6191981;28;20054;-60
2023/07/03 10:43:34;;;;;;;44.13;15.55;;;;;;;;;;6190707;28;20416;-60
2023/07/03 10:46:43;;;;;;;42.47;15.93;;;;;;;;;;6189327;28;20093;-60
2023/07/03 10:49:45;;;;;;;48.72;16.13;;;;;;;;;;6191101;28;20515;-60
2023/07/03 10:53:00;;;;;;;40.40;14.52;;;;;;;;;;6191274;28;20062;-60
2023/07/03 10:56:05;;;;;;;37.65;14.27;;;;;;;;;;6189346;28;20628;-60
2023/07/03 10:59:28;;;;;;;41.20;14.98;;;;;;;;;;6190103;28;20516;-60
2023/07/03 11:02:44;;;;;;;45.47;14.93;;;;;;;;;;6192225;28;20057;-60
2023/07/03 11:05:55;;;;;;;40.28;14.27;;;;;;;;;;6191902;28;20341;-59
2023/07/03 11:09:07;;;;;;;41.60;15.27;;;;;;;;;;6193540;28;20047;-59
2023/07/03 11:12:25;;;;;;;44.55;14.95;;;;;;;;;;6195475;28;20848;-59
2023/07/03 11:15:38;;;;;;;42.10;14.25;;;;;;;;;;6193293;28;20042;-60
2023/07/03 11:19:12;;;;;;;40.50;15.13;;;;;;;;;;6192763;28;20385;-62
2023/07/03 11:22:20;;;;;;;41.50;14.25;;;;;;;;;;6193230;28;20046;-60
2023/07/03 11:25:28;;;;;;;49.80;14.00;;;;;;;;;;6190586;28;20050;-60
2023/07/03 11:28:40;;;;;;;37.58;13.80;;;;;;;;;;6190972;28;20046;-61
2023/07/03 11:31:43;;;;;;;40.45;13.90;;;;;;;;;;6193796;28;20523;-60
2023/07/03 11:34:44;;;;;;;37.20;13.88;;;;;;;;;;6190333;28;20049;-60
2023/07/03 11:37:49;;;;;;;35.97;14.07;;;;;;;;;;6190637;28;20611;-60
2023/07/03 11:40:53;;;;;;;41.30;15.10;;;;;;;;;;6192439;28;20050;-60
2023/07/03 11:43:53;;;;;;;37.15;13.85;;;;;;;;;;6192365;28;20089;-59
2023/07/03 11:46:58;;;;;;;40.77;14.83;;;;;;;;;;6189865;28;20133;-60
2023/07/03 11:50:02;;;;;;;37.03;13.85;;;;;;;;;;6189926;28;20124;-63
2023/07/03 11:53:03;;;;;;;34.42;13.63;;;;;;;;;;6191694;28;20144;-60
2023/07/03 11:56:06;;;;;;;39.13;14.20;;;;;;;;;;6191196;28;20049;-60
2023/07/03 11:59:12;;;;;;;35.67;13.00;;;;;;;;;;6192435;28;20042;-60
2023/07/03 12:02:16;;;;;;;32.72;13.02;;;;;;;;;;6194566;28;20057;-61
2023/07/03 12:05:41;;;;;;;36.33;13.85;;;;;;;;;;6191331;28;20824;-59
2023/07/03 12:08:43;;;;;;;34.80;13.30;;;;;;;;;;6194327;28;20391;-59
2023/07/03 12:11:59;;;;;;;;;;;;;;;;;;6195157;28;20578;-60
2023/07/03 12:15:09;;;;;;;36.60;14.68;;;;;;;;;;6195512;28;19921;-60
2023/07/03 12:18:10;;;;;;;42.20;14.07;;;;;;;;;;6196489;28;20092;-60
2023/07/03 12:21:12;;;;;;;37.40;14.13;;;;;;;;;;6198603;28;20058;-60
2023/07/03 12:24:39;;;;;;;41.63;14.20;;;;;;;;;;6197045;28;20136;-60
2023/07/03 12:27:39;;;;;;;39.50;13.43;;;;;;;;;;6189601;28;20478;-60
2023/07/03 12:30:40;;;;;;;43.00;14.35;;;;;;;;;;6195483;28;20431;-60
2023/07/03 12:34:00;;;;;;;35.03;13.17;;;;;;;;;;6196460;28;20590;-60
2023/07/03 12:37:05;;;;;;;42.78;14.63;;;;;;;;;;6197392;28;20116;-61
2023/07/03 12:40:08;;;;;;;39.10;14.82;;;;;;;;;;6193565;28;20066;-61
2023/07/03 12:43:10;;;;;;;37.28;14.07;;;;;;;;;;6197068;28;20088;-61
2023/07/03 12:46:11;;;;;;;38.38;14.50;;;;;;;;;;6198319;28;20046;-60
2023/07/03 12:49:17;;;;;;;40.40;13.85;;;;;;;;;;6194244;28;20515;-62
2023/07/03 12:52:17;;;;;;;42.53;14.45;;;;;;;;;;6199370;28;20049;-62
2023/07/03 12:55:18;;;;;;;40.27;15.13;;;;;;;;;;6198500;28;20046;-61
2023/07/03 12:58:21;;;;;;;38.10;14.10;;;;;;;;;;6195471;28;20053;-62
2023/07/03 13:01:24;;;;;;;46.55;14.50;;;;;;;;;;6196899;28;20520;-63
2023/07/03 13:04:26;;;;;;;40.45;14.77;;;;;;;;;;6198220;28;20494;-61
2023/07/03 13:07:28;;;;;;;39.38;13.25;;;;;;;;;;6201830;28;20149;-61
2023/07/03 13:10:29;;;;;;;43.83;13.52;;;;;;;;;;6198565;28;20065;-61
2023/07/03 13:13:29;;;;;;;34.35;13.30;;;;;;;;;;6197504;28;20049;-65
2023/07/03 13:16:30;;;;;;;40.47;12.67;;;;;;;;;;6199781;28;20045;-61
2023/07/03 13:19:37;;;;;;;42.97;13.63;;;;;;;;;;6192334;28;20053;-60
2023/07/03 13:22:47;;;;;;;28.92;11.85;;;;;;;;;;6198716;28;20050;-60
2023/07/03 13:25:54;;;;;;;37.83;12.98;;;;;;;;;;6194415;28;20425;-60
2023/07/03 13:29:01;;;;;;;32.05;11.85;;;;;;;;;;6196458;28;20107;-60
2023/07/03 13:32:31;;;;;;;37.58;13.07;;;;;;;;;;6203229;28;20096;-61
2023/07/03 13:35:41;;;;;;;36.03;12.38;;;;;;;;;;6184217;28;20046;-61
2023/07/03 13:38:42;;;;;;;34.92;13.05;;;;;;;;;;6196286;28;20046;-61
2023/07/03 13:41:44;;;;;;;35.50;12.33;;;;;;;;;;6198612;28;20104;-62
2023/07/03 13:44:45;;;;;;;34.15;12.63;;;;;;;;;;6198363;28;20060;-61
2023/07/03 13:47:46;;;;;;;33.50;12.27;;;;;;;;;;6200007;28;20054;-60
2023/07/03 13:50:52;;;;;;;32.37;12.90;;;;;;;;;;6200547;28;20116;-60
2023/07/03 13:53:52;;;;;;;35.88;12.13;;;;;;;;;;6200529;28;20412;-61
2023/07/03 13:56:53;;;;;;;34.93;12.40;;;;;;;;;;6197679;28;20501;-61
2023/07/03 13:59:53;;;;;;;33.87;12.50;;;;;;;;;;6199313;28;20104;-61
2023/07/03 14:02:54;;;;;;;30.03;11.87;;;;;;;;;;6194215;28;20134;-61
2023/07/03 14:05:55;;;;;;;35.37;13.07;;;;;;;;;;6194046;28;20311;-61
2023/07/03 14:08:56;;;;;;;33.17;12.50;;;;;;;;;;6199882;28;20489;-60
2023/07/03 14:11:57;;;;;;;;;;;;;;;;;;6199425;28;20054;-61
2023/07/03 14:14:58;;;;;;;36.50;11.60;;;;;;;;;;6190137;28;19932;-60
2023/07/03 14:17:58;;;;;;;36.47;12.87;;;;;;;;;;6195447;28;20522;-60
2023/07/03 14:20:59;;;;;;;34.05;12.68;;;;;;;;;;6195267;28;20054;-61
2023/07/03 14:24:00;;;;;;;31.42;12.20;;;;;;;;;;6188090;28;20058;-61
2023/07/03 14:27:01;;;;;;;36.67;12.17;;;;;;;;;;6193064;28;20045;-60
2023/07/03 14:30:04;;;;;;;36.80;12.32;;;;;;;;;;6192541;28;20314;-61
2023/07/03 14:33:05;;;;;;;33.67;12.50;;;;;;;;;;6190526;28;20046;-61
2023/07/03 14:36:06;;;;;;;33.53;12.25;;;;;;;;;;6189430;28;20631;-61
2023/07/03 14:39:06;;;;;;;35.05;12.48;;;;;;;;;;6193803;28;20498;-61
2023/07/03 14:42:07;;;;;;;34.43;12.53;;;;;;;;;;6177600;28;20046;-61
2023/07/03 14:45:08;;;;;;;28.13;11.77;;;;;;;;;;6188874;28;20049;-60
2023/07/03 14:48:09;;;;;;;35.80;11.98;;;;;;;;;;6193286;28;20315;-60
2023/07/03 14:51:10;;;;;;;35.42;11.82;;;;;;;;;;6194175;28;20065;-61
2023/07/03 14:54:11;;;;;;;29.63;12.03;;;;;;;;;;6187734;28;20056;-61
2023/07/03 14:57:11;;;;;;;30.70;12.67;;;;;;;;;;6192170;28;20056;-60
2023/07/03 15:00:12;;;;;;;35.80;12.10;;;;;;;;;;6193996;28;20318;-61
2023/07/03 15:03:13;;;;;;;28.92;11.68;;;;;;;;;;6191560;28;20064;-61
2023/07/03 15:06:14;;;;;;;31.17;11.00;;;;;;;;;;6186874;28;20417;-60
2023/07/03 15:09:15;;;;;;;29.73;11.77;;;;;;;;;;6189805;28;20096;-60
2023/07/03 15:12:15;;;;;;;33.57;11.97;;;;;;;;;;6191016;28;20061;-61
2023/07/03 15:15:16;;;;;;;28.47;11.17;;;;;;;;;;6186400;28;20928;-61
2023/07/03 15:18:17;;;;;;;27.67;10.83;;;;;;;;;;6191655;28;20300;-60
2023/07/03 15:21:17;;;;;;;33.20;12.20;;;;;;;;;;6190586;28;20130;-60
2023/07/03 15:24:19;;;;;;;32.03;11.40;;;;;;;;;;6187162;28;20049;-61
2023/07/03 15:27:20;;;;;;;35.25;11.82;;;;;;;;;;6190080;28;20055;-61
2023/07/03 15:30:20;;;;;;;30.13;10.80;;;;;;;;;;6191223;28;20045;-60
2023/07/03 15:33:21;;;;;;;28.33;11.60;;;;;;;;;;6191305;28;20417;-60
2023/07/03 15:36:22;;;;;;;28.53;11.47;;;;;;;;;;6190846;28;20879;-61
2023/07/03 15:39:24;;;;;;;34.67;12.40;;;;;;;;;;6191222;28;20104;-61
2023/07/03 15:42:24;;;;;;;30.60;11.73;;;;;;;;;;6187000;28;20556;-61
2023/07/03 15:45:25;;;;;;;33.30;12.63;;;;;;;;;;6188403;28;20056;-67
2023/07/03 15:48:25;;;;;;;36.13;11.93;;;;;;;;;;6191171;28;20604;-60
2023/07/03 15:51:26;;;;;;;30.17;12.02;;;;;;;;;;6192410;28;20060;-60
2023/07/03 15:54:27;;;;;;;32.47;11.73;;;;;;;;;;6188448;28;20046;-60
2023/07/03 15:57:28;;;;;;;31.77;11.90;;;;;;;;;;6194175;28;20527;-60
2023/07/03 16:00:29;;;;;;;;;;;;;;;;;;6188295;28;20315;-60
2023/07/03 16:03:30;;;;;;;35.67;12.50;;;;;;;;;;6192608;28;19926;-61
2023/07/03 16:06:35;;;;;;;30.83;11.55;;;;;;;;;;6190193;28;20058;-61
2023/07/03 16:09:36;;;;;;;31.10;11.52;;;;;;;;;;6189205;28;20053;-60
2023/07/03 16:12:37;;;;;;;32.00;12.07;;;;;;;;;;6189866;28;20105;-60
2023/07/03 16:15:38;;;;;;;34.53;11.90;;;;;;;;;;6191802;28;20125;-61
2023/07/03 16:18:39;;;;;;;33.80;12.60;;;;;;;;;;6193698;28;20104;-60
2023/07/03 16:21:41;;;;;;;36.15;12.25;;;;;;;;;;6189967;28;20068;-61
2023/07/03 16:24:41;;;;;;;33.15;12.02;;;;;;;;;;6189637;28;20046;-60
2023/07/03 16:27:42;;;;;;;30.60;12.50;;;;;;;;;;6193552;28;20105;-61
2023/07/03 16:30:42;;;;;;;31.47;12.40;;;;;;;;;;6193461;28;20315;-61
2023/07/03 16:33:48;;;;;;;33.33;12.30;;;;;;;;;;6193072;28;20043;-60
2023/07/03 16:36:49;;;;;;;34.72;13.25;;;;;;;;;;6192887;28;20065;-61
2023/07/03 16:39:50;;;;;;;31.50;12.40;;;;;;;;;;6189088;28;20053;-61
2023/07/03 16:42:51;;;;;;;28.23;13.00;;;;;;;;;;6187358;28;20835;-61
2023/07/03 16:45:52;;;;;;;35.55;12.75;;;;;;;;;;6189465;28;20053;-61
2023/07/03 16:48:54;;;;;;;34.33;12.23;;;;;;;;;;6190663;28;20054;-60
2023/07/03 16:51:54;;;;;;;27.58;12.02;;;;;;;;;;6196006;28;20125;-61
2023/07/03 16:54:55;;;;;;;29.47;12.50;;;;;;;;;;6191867;28;20050;-62
2023/07/03 16:57:56;;;;;;;32.03;13.02;;;;;;;;;;6193397;28;20077;-60
2023/07/03 17:01:00;;;;;;;38.70;12.87;;;;;;;;;;6194026;28;20076;-61
2023/07/03 17:04:01;;;;;;;33.70;12.55;;;;;;;;;;6198200;28;20054;-63
2023/07/03 17:07:02;;;;;;;32.07;12.57;;;;;;;;;;6187225;28;20081;-62
2023/07/03 17:10:03;;;;;;;31.35;12.45;;;;;;;;;;6196514;28;20058;-61
2023/07/03 17:13:05;;;;;;;32.35;11.73;;;;;;;;;;6198567;28;20481;-61
2023/07/03 17:16:06;;;;;;;32.90;12.30;;;;;;;;;;6194686;28;20045;-59
2023/07/03 17:19:07;;;;;;;32.70;13.18;;;;;;;;;;6196979;28;20066;-65
2023/07/03 17:22:08;;;;;;;33.47;13.10;;;;;;;;;;6195456;28;20056;-61
2023/07/03 17:25:08;;;;;;;31.63;12.63;;;;;;;;;;6196296;28;20306;-64
2023/07/03 17:28:10;;;;;;;32.42;13.10;;;;;;;;;;6196350;28;20137;-64
2023/07/03 17:31:10;;;;;;;35.38;13.90;;;;;;;;;;6195604;28;20371;-59
2023/07/03 17:34:12;;;;;;;31.63;13.90;;;;;;;;;;6195696;28;20157;-61
2023/07/03 17:37:14;;;;;;;34.88;12.88;;;;;;;;;;6196872;28;20141;-60
2023/07/03 17:40:14;;;;;;;;;;;;;;;;;;6196476;28;20088;-60
2023/07/03 17:43:21;;;;;;;33.87;13.17;;;;;;;;;;6200566;28;19929;-60
2023/07/03 17:46:22;;;;;;;37.75;13.13;;;;;;;;;;6192282;28;20050;-60
2023/07/03 17:49:22;;;;;;;32.42;12.98;;;;;;;;;;6196518;28;20120;-60